createdAt,value
2019-05-22T10:37:46.415Z,7.90
2019-05-22T10:42:47.269Z,6.07
2019-05-22T10:47:48.814Z,6.67
2019-05-22T10:52:54.086Z,9.80
2019-05-22T10:57:53.608Z,7.37
2019-05-22T11:02:55.288Z,7.00
2019-05-22T11:07:56.372Z,10.93
2019-05-22T11:12:57.753Z,9.40
2019-05-22T11:17:58.952Z,10.20
2019-05-22T11:23:00.524Z,7.40
2019-05-22T11:28:01.536Z,12.70
2019-05-22T11:33:02.993Z,9.27
2019-05-22T11:38:04.172Z,11.03
2019-05-22T11:43:06.154Z,10.73
2019-05-22T11:48:07.651Z,13.07
2019-05-22T11:53:08.646Z,10.13
2019-05-22T11:58:09.926Z,10.63
2019-05-22T12:03:12.198Z,11.17
2019-05-22T12:08:16.695Z,10.50
2019-05-22T12:13:17.769Z,14.90
2019-05-22T12:18:19.468Z,9.20
2019-05-22T12:23:20.440Z,8.97
2019-05-22T12:28:21.424Z,11.73
2019-05-22T12:33:22.779Z,9.90
2019-05-22T12:38:26.758Z,12.23
2019-05-22T12:43:27.963Z,11.80
2019-05-22T12:48:29.240Z,11.67
2019-05-22T12:53:30.724Z,13.83
2019-05-22T12:58:33.020Z,14.03
2019-05-22T13:03:34.911Z,15.37
2019-05-22T13:08:36.569Z,13.23
2019-05-22T13:13:41.579Z,16.47
2019-05-22T13:18:43.857Z,14.63
2019-05-22T13:23:44.949Z,15.17
2019-05-22T13:28:46.722Z,14.07
2019-05-22T13:33:48.494Z,17.83
2019-05-22T13:38:49.516Z,17.17
2019-05-22T13:43:50.597Z,18.57
2019-05-22T13:48:54.233Z,11.77
2019-05-22T13:53:55.504Z,15.40
2019-05-22T13:58:56.602Z,13.70
2019-05-22T14:03:57.478Z,12.13
2019-05-22T14:08:59.716Z,16.23
2019-05-22T14:14:01.121Z,14.23
2019-05-22T14:19:02.787Z,17.00
2019-05-22T14:24:04.090Z,17.40
2019-05-22T14:29:05.344Z,13.77
2019-05-22T14:34:06.521Z,11.80
2019-05-22T14:39:09.702Z,12.63
2019-05-22T14:44:11.375Z,13.37
2019-05-22T14:49:27.026Z,13.93
2019-05-22T14:54:28.903Z,14.33
2019-05-22T14:59:31.190Z,14.27
2019-05-22T15:04:32.372Z,13.40
2019-05-22T15:09:34.527Z,12.23
2019-05-22T15:14:35.504Z,14.90
2019-05-22T15:19:36.782Z,12.53
2019-05-22T15:24:37.960Z,16.23
2019-05-22T15:29:39.258Z,17.63
2019-05-22T15:34:40.628Z,16.63
2019-05-22T15:39:42.800Z,13.17
2019-05-22T15:44:44.283Z,12.37
2019-05-22T15:49:45.552Z,9.53
2019-05-22T15:54:46.723Z,8.23
2019-05-22T15:59:47.625Z,9.83
2019-05-22T16:04:49.418Z,8.77
2019-05-22T16:09:50.595Z,13.80
2019-05-22T16:14:51.561Z,11.97
2019-05-22T16:19:52.941Z,10.77
2019-05-22T16:24:53.927Z,9.67
2019-05-22T16:29:54.815Z,12.47
2019-05-22T16:34:56.915Z,8.83
2019-05-22T16:39:58.464Z,13.67
2019-05-22T16:45:00.235Z,11.47
2019-05-22T16:50:01.431Z,14.70
2019-05-22T16:55:06.396Z,16.23
2019-05-22T17:00:09.791Z,14.93
2019-05-22T17:05:12.187Z,16.87
2019-05-22T17:10:14.369Z,13.67
2019-05-22T17:15:18.820Z,15.67
2019-05-22T17:20:22.905Z,20.17
2019-05-22T17:25:24.202Z,18.17
2019-05-22T17:30:25.885Z,16.57
2019-05-22T17:35:27.572Z,16.50
2019-05-22T17:40:30.036Z,15.47
2019-05-22T17:45:31.128Z,16.30
2019-05-22T17:50:32.990Z,15.43
2019-05-22T17:55:34.664Z,16.37
2019-05-22T18:00:40.223Z,17.97
2019-05-22T18:05:41.884Z,16.93
2019-05-22T18:10:47.790Z,17.93
2019-05-22T18:15:48.751Z,21.70
2019-05-22T18:20:50.620Z,15.43
2019-05-22T18:25:52.013Z,19.00
2019-05-22T18:30:53.506Z,19.20
2019-05-22T18:35:54.381Z,16.57
2019-05-22T18:40:55.259Z,15.90
2019-05-22T18:45:56.343Z,16.10
2019-05-22T18:50:57.232Z,16.07
2019-05-22T18:55:58.135Z,18.03
2019-05-22T19:00:59.099Z,14.30
2019-05-22T19:06:01.508Z,14.43
2019-05-22T19:11:02.796Z,14.60
2019-05-22T19:16:04.894Z,16.70
2019-05-22T19:21:07.090Z,13.37
2019-05-22T19:26:07.947Z,16.60
2019-05-22T19:31:09.431Z,16.70
2019-05-22T19:36:10.515Z,17.17
2019-05-22T19:41:11.792Z,15.83
2019-05-22T19:46:13.473Z,15.20
2019-05-22T19:51:16.751Z,15.93
2019-05-22T19:56:18.246Z,16.60
2019-05-22T20:01:19.330Z,14.33
2019-05-22T20:06:21.618Z,16.93
2019-05-22T20:11:22.696Z,16.97
2019-05-22T20:16:24.071Z,15.43
2019-05-22T20:21:26.360Z,14.17
2019-05-22T20:26:27.538Z,17.73
